Gully, MN (56646)

10:57 AM CST on February 08, 2016 (GMT -0600)
Fosston Municipal | | Change Station
CLOSE
Current Station
Airport
Location: Fosston,
Elevation: 1276 ft
Nearby Weather Stations
Active Advisory: Winter Weather Advisory Active Notice: Public Information Statement

Elev 1276 ft 47.59 °N, 95.77 °W | Updated 23 minutes ago

Snow
Snow
9 °F
Feels Like -12 °F
N
23
Wind Variable Wind from NW
Gusts 29 mph

Today
High -- | Low -- °F
--% Chance of Precip.
Yesterday
High -- | Low -- °F
Precip. -- in
Pressure 30.10 in
Visibility 1.0 miles
Clouds Scattered Clouds 700 ft
Overcast 1200 ft
Windchill -12 °F
Dew Point 3 °F
Humidity 79%
Rainfall 0.00 in
Snow Depth Not available.
7:40 AM 5:33 PM
New Moon, 0% visible
METAR KFSE 081634Z AUTO 32020G25KT 1SM -SN SCT007 OVC012 M13/M16 A3010 RMK AO2
Pressure 30.10 in
Visibility 1.0 miles
Clouds Scattered Clouds 700 ft
Overcast 1200 ft
Windchill -12 °F
Dew Point 3 °F
Humidity 79%
Rainfall 0.00 in
Snow Depth Not available.
7:40 AM 5:33 PM
New Moon, 0% visible
METAR KFSE 081634Z AUTO 32020G25KT 1SM -SN SCT007 OVC012 M13/M16 A3010 RMK AO2

10-Day Weather Forecast

Almanac

Astronomy

Feb. 08, 2016 Rise Set
Actual Time
Civil Twilight
Nautical Twilight
Astronomical Twilight
Moon
Length of Visible Light
Length of Day
Tomorrow will be .
, % of the Moon is Illuminated

Today's Extremes

State Highs State Lows

Community

WunderPhotos

Upload Photos

1,891,462 photos uploaded!

WunderBlog® & News

Nearby

Air Quality

  Air Quality AQ Index Pollutant
Not available.

Snow Depth

Station Depth Elevation

Earthquake Activity

City Distance Mag. Time & Date
Minimum magnitude displayed is 2.5.

Coastal Water Temperatures

Place Temperature

Stations

Nearby Weather Stations

Station Location Temp. Windchill Dew Point Humidity Wind Precip. Elev Updated Type
                   

Watches & Warnings

Winter Weather Advisory
Issued: 5:59 AM CST Feb. 8, 2016 – National Weather Service

... Winter Weather Advisory now in effect until noon CST today...

* timing... expect snow showers and strong winds to continue
through the morning.

* Winds / visibilities... winds gusting as high as 40 mph will
cause areas lower visibility to a mile or less with snow
showers.

* Impacts... plan on slippery Road conditions.

* Winds... northwest 25 to 35 mph with gusts up to 40 mph.

Precautionary/preparedness actions...

A Winter Weather Advisory for blowing snow means that
visibilities will be limited due to strong winds blowing snow
around. Use caution when traveling... especially in open areas.